createdAt,value
2023-04-18T00:01:40.252Z,99349.23
2023-04-18T00:03:45.872Z,99351.83
2023-04-18T00:05:49.969Z,99346.77
2023-04-18T00:07:53.465Z,99347.45
2023-04-18T00:09:58.484Z,99344.47
2023-04-18T00:12:03.124Z,99344.13
2023-04-18T00:14:06.965Z,99344.52
2023-04-18T00:16:10.035Z,99342.52
2023-04-18T00:18:17.236Z,99343.64
2023-04-18T00:20:20.317Z,99342.98
2023-04-18T00:22:23.533Z,99342.95
2023-04-18T00:24:26.408Z,99340.40
2023-04-18T00:26:29.199Z,99341.88
2023-04-18T00:28:32.776Z,99339.43
2023-04-18T00:30:35.710Z,99336.26
2023-04-18T00:32:40.987Z,99337.59
2023-04-18T00:34:44.632Z,99334.88
2023-04-18T00:36:49.279Z,99333.77
2023-04-18T00:38:52.527Z,99331.90
2023-04-18T00:40:55.611Z,99330.67
2023-04-18T00:42:58.798Z,99328.20
2023-04-18T00:45:02.127Z,99325.16
2023-04-18T00:47:04.868Z,99322.27
2023-04-18T00:49:08.456Z,99321.00
2023-04-18T00:51:12.373Z,99324.90
2023-04-18T00:53:15.715Z,99325.55
2023-04-18T00:55:20.679Z,99327.69
2023-04-18T00:57:24.795Z,99326.58
2023-04-18T00:59:27.767Z,99324.48
2023-04-18T01:01:30.990Z,99321.59
2023-04-18T01:03:35.500Z,99320.08
2023-04-18T01:05:40.392Z,99320.11
2023-04-18T01:07:47.735Z,99318.41
2023-04-18T01:09:53.563Z,99317.30
2023-04-18T01:11:57.022Z,99317.91
2023-04-18T01:14:07.277Z,99317.31
2023-04-18T01:16:13.339Z,99317.52
2023-04-18T01:18:18.576Z,99315.91
2023-04-18T01:20:24.629Z,99310.79
2023-04-18T01:22:33.976Z,99310.01
2023-04-18T01:24:38.360Z,99308.80
2023-04-18T01:26:45.242Z,99305.16
2023-04-18T01:28:48.712Z,99305.67
2023-04-18T01:30:57.723Z,99306.49
2023-04-18T01:33:04.997Z,99306.52
2023-04-18T01:35:10.715Z,99306.09
2023-04-18T01:37:14.899Z,99302.23
2023-04-18T01:39:19.688Z,99304.29
2023-04-18T01:41:23.861Z,99302.68
2023-04-18T01:43:28.135Z,99300.17
2023-04-18T01:45:32.262Z,99300.48
2023-04-18T01:47:37.667Z,99301.11
2023-04-18T01:49:43.557Z,99302.17
2023-04-18T01:51:51.702Z,99303.27
2023-04-18T01:53:58.441Z,99301.05
2023-04-18T01:56:04.984Z,99304.36
2023-04-18T01:58:08.604Z,99299.38
2023-04-18T02:00:15.417Z,99298.21
2023-04-18T02:02:26.688Z,99304.34
2023-04-18T02:04:38.382Z,99299.31
2023-04-18T02:06:42.007Z,99297.99
2023-04-18T02:08:45.092Z,99294.29
2023-04-18T02:10:50.960Z,99294.91
2023-04-18T02:12:59.165Z,99295.50
2023-04-18T02:15:07.213Z,99294.81
2023-04-18T02:17:13.049Z,99289.55
2023-04-18T02:19:35.043Z,99291.38
2023-04-18T02:21:42.849Z,99291.61
2023-04-18T02:23:54.927Z,99291.92
2023-04-18T02:26:01.483Z,99292.27
2023-04-18T02:28:08.055Z,99295.56
2023-04-18T02:30:12.293Z,99294.45
2023-04-18T02:32:21.136Z,99295.52
2023-04-18T02:34:26.748Z,99294.66
2023-04-18T02:36:31.189Z,99297.09
2023-04-18T02:38:36.850Z,99295.31
2023-04-18T02:40:41.723Z,99298.98
2023-04-18T02:42:46.567Z,99298.86
2023-04-18T02:44:52.311Z,99300.51
2023-04-18T02:46:58.424Z,99299.21
2023-04-18T02:49:03.075Z,99298.05
2023-04-18T02:51:07.939Z,99300.77
2023-04-18T02:53:15.066Z,99299.73
2023-04-18T02:55:31.483Z,99302.09
2023-04-18T02:57:36.303Z,99301.52
2023-04-18T03:00:03.655Z,99302.08
2023-04-18T03:02:44.956Z,99302.15
2023-04-18T03:05:28.959Z,99301.98
2023-04-18T03:07:36.890Z,99304.16
2023-04-18T03:09:41.390Z,99304.31
2023-04-18T03:12:02.241Z,99305.20
2023-04-18T03:14:10.918Z,99306.10
2023-04-18T03:16:44.612Z,99304.94
2023-04-18T03:18:50.162Z,99305.27
2023-04-18T03:21:09.378Z,99304.13
2023-04-18T03:23:14.030Z,99302.90
2023-04-18T03:25:22.675Z,99301.92
2023-04-18T03:27:31.812Z,99306.14
2023-04-18T03:29:36.491Z,99301.80
2023-04-18T03:31:45.177Z,99302.75
2023-04-18T03:33:48.417Z,99306.65
2023-04-18T03:35:52.482Z,99307.84
2023-04-18T03:37:56.321Z,99305.73
2023-04-18T03:40:28.296Z,99306.20
2023-04-18T03:42:44.779Z,99306.52
2023-04-18T03:44:51.990Z,99305.20
2023-04-18T03:46:59.072Z,99303.44
2023-04-18T03:49:12.626Z,99305.36
2023-04-18T03:51:28.333Z,99303.92
2023-04-18T03:53:42.295Z,99302.67
2023-04-18T03:55:52.169Z,99303.98
2023-04-18T03:58:07.702Z,99302.00
2023-04-18T04:00:13.837Z,99304.17
2023-04-18T04:02:23.903Z,99306.20
2023-04-18T04:04:28.000Z,99305.05
2023-04-18T04:06:33.987Z,99305.95
2023-04-18T04:08:52.534Z,99304.85
2023-04-18T04:11:15.583Z,99309.38
2023-04-18T04:13:29.413Z,99309.25
2023-04-18T04:15:34.146Z,99311.27
2023-04-18T04:17:46.500Z,99315.61
2023-04-18T04:19:56.281Z,99317.36
2023-04-18T04:22:27.696Z,99319.14
2023-04-18T04:24:35.105Z,99318.52
2023-04-18T04:26:40.653Z,99319.28
2023-04-18T04:28:53.200Z,99322.64
2023-04-18T04:31:01.100Z,99323.18
2023-04-18T04:33:09.104Z,99326.42
2023-04-18T04:35:22.656Z,99325.54
2023-04-18T04:37:30.058Z,99327.38
2023-04-18T04:39:46.245Z,99330.17
2023-04-18T04:42:26.200Z,99332.63
2023-04-18T04:44:35.627Z,99334.36
2023-04-18T04:46:40.581Z,99337.64
2023-04-18T04:48:54.849Z,99338.83
2023-04-18T04:51:00.373Z,99339.69
2023-04-18T04:53:08.302Z,99341.10
2023-04-18T04:55:13.926Z,99341.77
2023-04-18T04:57:21.582Z,99341.58
2023-04-18T04:59:24.626Z,99344.86
2023-04-18T05:01:27.919Z,99343.45
2023-04-18T05:03:31.345Z,99344.88
2023-04-18T05:05:50.798Z,99341.46
2023-04-18T05:07:54.374Z,99344.89
2023-04-18T05:09:59.378Z,99349.23
2023-04-18T05:12:06.530Z,99349.02
2023-04-18T05:14:09.462Z,99346.54
2023-04-18T05:16:13.330Z,99346.61
2023-04-18T05:18:24.900Z,99348.02
2023-04-18T05:20:31.641Z,99347.89
2023-04-18T05:22:41.350Z,99344.73
2023-04-18T05:24:44.830Z,99347.67
2023-04-18T05:26:49.206Z,99348.90
2023-04-18T05:28:54.225Z,99348.70
2023-04-18T05:31:16.949Z,99343.92
2023-04-18T05:33:20.898Z,99349.56
2023-04-18T05:35:23.691Z,99351.12
2023-04-18T05:37:26.769Z,99350.73
2023-04-18T05:39:29.453Z,99356.30
2023-04-18T05:41:32.559Z,99358.02
2023-04-18T05:43:35.344Z,99358.22
2023-04-18T05:45:38.715Z,99357.61
2023-04-18T05:47:41.548Z,99357.88
2023-04-18T05:49:45.045Z,99357.29
2023-04-18T05:51:50.349Z,99357.92
2023-04-18T05:53:53.104Z,99354.13
2023-04-18T05:55:59.337Z,99355.40
2023-04-18T05:58:02.431Z,99357.40
2023-04-18T06:00:08.484Z,99356.11
2023-04-18T06:02:32.538Z,99361.77
2023-04-18T06:04:48.485Z,99366.78
2023-04-18T06:06:55.089Z,99363.21
2023-04-18T06:08:59.330Z,99362.91
2023-04-18T06:11:09.862Z,99367.02
2023-04-18T06:13:19.558Z,99366.20
2023-04-18T06:15:29.894Z,99365.71
2023-04-18T06:17:37.552Z,99368.06
2023-04-18T06:19:43.316Z,99369.52
2023-04-18T06:21:49.956Z,99369.48
2023-04-18T06:23:58.202Z,99368.42
2023-04-18T06:26:07.018Z,99366.77
2023-04-18T06:28:17.240Z,99367.77
2023-04-18T06:30:22.254Z,99367.77
2023-04-18T06:32:26.954Z,99364.08
2023-04-18T06:34:35.515Z,99362.80
2023-04-18T06:36:40.780Z,99365.86
2023-04-18T06:38:44.907Z,99364.98
2023-04-18T06:40:47.626Z,99365.79
2023-04-18T06:42:55.028Z,99370.75
2023-04-18T06:44:58.007Z,99373.13
2023-04-18T06:47:03.142Z,99376.36
2023-04-18T06:49:06.197Z,99378.98
2023-04-18T06:51:11.077Z,99380.08
2023-04-18T06:53:16.098Z,99377.87
2023-04-18T06:55:18.882Z,99378.32
2023-04-18T06:57:22.053Z,99384.54
2023-04-18T06:59:25.411Z,99389.93
2023-04-18T07:01:33.914Z,99388.86
2023-04-18T07:03:36.956Z,99388.50
2023-04-18T07:05:41.003Z,99387.05
2023-04-18T07:07:46.610Z,99396.26
2023-04-18T07:10:02.806Z,99389.47
2023-04-18T07:12:07.330Z,99390.20
2023-04-18T07:14:12.259Z,99393.77
2023-04-18T07:16:16.677Z,99392.52
2023-04-18T07:18:34.140Z,99394.48
2023-04-18T07:20:44.057Z,99394.36
2023-04-18T07:22:56.970Z,99392.39
2023-04-18T07:25:00.493Z,99396.46
2023-04-18T07:27:19.275Z,99401.15
2023-04-18T07:29:25.004Z,99403.49
2023-04-18T07:31:28.951Z,99414.36
2023-04-18T07:33:39.515Z,99418.52
2023-04-18T07:35:45.943Z,99421.35
2023-04-18T07:37:48.937Z,99419.59
2023-04-18T07:39:52.568Z,99421.62
2023-04-18T07:42:02.095Z,99419.48
2023-04-18T07:44:08.337Z,99415.27
2023-04-18T07:46:16.417Z,99415.45
2023-04-18T07:48:23.482Z,99415.28
2023-04-18T07:50:30.598Z,99411.58
2023-04-18T07:52:34.178Z,99413.48
2023-04-18T07:54:38.125Z,99416.83
2023-04-18T07:56:41.206Z,99414.21
2023-04-18T07:58:45.664Z,99412.89
2023-04-18T08:00:49.309Z,99410.46
2023-04-18T08:02:53.105Z,99413.65
2023-04-18T08:04:58.762Z,99410.90
2023-04-18T08:07:02.127Z,99403.39
2023-04-18T08:09:09.508Z,99408.11
2023-04-18T08:11:13.319Z,99405.27
2023-04-18T08:13:18.248Z,99410.97
2023-04-18T08:15:43.545Z,99413.00
2023-04-18T08:17:49.194Z,99417.52
2023-04-18T08:19:54.659Z,99421.21
2023-04-18T08:22:11.327Z,99416.59
2023-04-18T08:24:41.699Z,99417.83
2023-04-18T08:26:52.024Z,99419.30
2023-04-18T08:28:57.797Z,99418.95
2023-04-18T08:31:00.853Z,99420.58
2023-04-18T08:33:09.979Z,99421.08
2023-04-18T08:35:14.010Z,99420.15
2023-04-18T08:37:19.448Z,99419.09
2023-04-18T08:39:27.628Z,99419.95
2023-04-18T08:41:36.953Z,99417.02
2023-04-18T08:43:42.734Z,99414.38
2023-04-18T08:45:59.247Z,99414.41
2023-04-18T08:48:06.244Z,99413.67
2023-04-18T08:50:12.788Z,99416.78
2023-04-18T08:52:27.436Z,99417.02
2023-04-18T08:54:34.002Z,99420.02
2023-04-18T08:56:39.212Z,99414.41
2023-04-18T08:58:47.021Z,99410.96
2023-04-18T09:00:52.094Z,99414.35
2023-04-18T09:02:57.815Z,99421.37
2023-04-18T09:05:26.121Z,99424.97
2023-04-18T09:07:36.131Z,99424.17
2023-04-18T09:09:49.143Z,99423.30
2023-04-18T09:12:12.069Z,99425.30
2023-04-18T09:14:26.449Z,99422.55
2023-04-18T09:16:47.055Z,99421.33
2023-04-18T09:19:10.710Z,99422.05
2023-04-18T09:21:23.801Z,99419.18
2023-04-18T09:23:32.710Z,99421.32
2023-04-18T09:25:50.990Z,99417.73
2023-04-18T09:28:01.509Z,99417.18
2023-04-18T09:30:33.707Z,99418.21
2023-04-18T09:32:41.173Z,99413.88
2023-04-18T09:34:47.365Z,99416.55
2023-04-18T09:37:08.051Z,99418.44
2023-04-18T09:39:27.458Z,99420.83
2023-04-18T09:41:31.402Z,99417.04
2023-04-18T09:43:40.854Z,99418.17
2023-04-18T09:45:44.598Z,99419.88
2023-04-18T09:47:49.647Z,99418.51
2023-04-18T09:49:54.507Z,99416.23
2023-04-18T09:52:00.372Z,99417.75
2023-04-18T09:56:35.496Z,99422.90
2023-04-18T09:58:42.567Z,99409.48
2023-04-18T10:00:50.335Z,99412.59
2023-04-18T10:03:18.712Z,99415.91
2023-04-18T10:05:25.465Z,99414.73
2023-04-18T10:07:34.941Z,99414.42
2023-04-18T10:09:41.045Z,99416.98
2023-04-18T10:11:46.003Z,99422.52
2023-04-18T10:13:53.824Z,99423.24
2023-04-18T10:16:03.733Z,99422.78
2023-04-18T10:18:18.658Z,99426.17
2023-04-18T10:20:25.253Z,99424.52
2023-04-18T10:22:34.070Z,99423.10
2023-04-18T10:24:53.871Z,99424.09
2023-04-18T10:26:58.544Z,99421.93
2023-04-18T10:29:09.710Z,99420.40
2023-04-18T10:31:25.800Z,99422.29
2023-04-18T10:33:41.007Z,99423.11
2023-04-18T10:36:02.964Z,99426.50
2023-04-18T10:38:16.646Z,99433.35
2023-04-18T10:40:36.757Z,99433.55
2023-04-18T10:42:47.675Z,99435.98
2023-04-18T10:45:40.134Z,99436.66
2023-04-18T10:47:46.978Z,99434.73
2023-04-18T10:49:56.300Z,99432.27
2023-04-18T10:52:01.870Z,99430.42
2023-04-18T10:54:09.951Z,99428.98
2023-04-18T10:56:17.203Z,99434.11
2023-04-18T10:58:22.439Z,99431.70
2023-04-18T11:00:43.876Z,99433.42
2023-04-18T11:03:05.609Z,99432.32
2023-04-18T11:05:11.548Z,99431.27
2023-04-18T11:07:17.886Z,99429.77
2023-04-18T11:09:21.360Z,99429.67
2023-04-18T11:12:10.641Z,99426.45
2023-04-18T11:14:23.461Z,99425.13
2023-04-18T11:16:38.734Z,99421.61
2023-04-18T11:18:42.610Z,99422.30
2023-04-18T11:20:52.215Z,99423.55
2023-04-18T11:22:58.728Z,99423.35
2023-04-18T11:25:08.076Z,99418.36
2023-04-18T11:27:14.729Z,99413.11
2023-04-18T11:29:18.211Z,99412.38
2023-04-18T11:31:25.385Z,99412.12
2023-04-18T11:33:30.481Z,99409.98
2023-04-18T11:35:44.933Z,99409.52
2023-04-18T11:38:04.138Z,99410.42
2023-04-18T11:40:13.532Z,99408.73
2023-04-18T11:42:18.307Z,99406.71
2023-04-18T11:44:26.776Z,99405.25
2023-04-18T11:49:30.908Z,99408.27
2023-04-18T11:51:48.320Z,99409.10
2023-04-18T11:53:52.653Z,99410.10
2023-04-18T11:56:22.546Z,99406.73
2023-04-18T11:58:42.265Z,99406.38
2023-04-18T12:00:46.840Z,99406.11
2023-04-18T12:02:56.723Z,99406.95
2023-04-18T12:05:30.998Z,99402.61
2023-04-18T12:07:37.709Z,99407.88
2023-04-18T12:09:43.929Z,99403.90
2023-04-18T12:12:19.621Z,99406.69
2023-04-18T12:14:38.817Z,99408.86
2023-04-18T12:16:44.365Z,99413.60
2023-04-18T12:18:48.355Z,99408.51
2023-04-18T12:20:54.379Z,99405.11
2023-04-18T12:23:00.917Z,99409.92
2023-04-18T12:25:38.877Z,99407.05
2023-04-18T12:28:06.883Z,99404.55
2023-04-18T12:30:10.587Z,99409.08
2023-04-18T12:32:13.561Z,99402.09
2023-04-18T12:34:19.289Z,99400.40
2023-04-18T12:36:29.243Z,99404.63
2023-04-18T12:38:44.839Z,99409.15
2023-04-18T12:40:54.929Z,99406.08
2023-04-18T12:42:57.991Z,99405.77
2023-04-18T12:45:03.811Z,99406.64
2023-04-18T12:47:08.657Z,99405.34
2023-04-18T12:49:16.713Z,99402.88
2023-04-18T12:51:25.940Z,99404.85
2023-04-18T12:53:37.904Z,99407.61
2023-04-18T12:55:42.034Z,99403.44
2023-04-18T12:57:47.659Z,99404.36
2023-04-18T12:59:51.180Z,99404.77
2023-04-18T13:01:57.464Z,99407.17
2023-04-18T13:04:12.289Z,99412.83
2023-04-18T13:06:17.364Z,99409.46
2023-04-18T13:08:23.735Z,99412.26
2023-04-18T13:10:31.054Z,99410.11
2023-04-18T13:12:43.308Z,99412.23
2023-04-18T13:14:55.960Z,99411.08
2023-04-18T13:17:01.543Z,99415.56
2023-04-18T13:19:10.260Z,99415.95
2023-04-18T13:21:25.254Z,99411.39
2023-04-18T13:23:37.645Z,99412.60
2023-04-18T13:25:44.397Z,99409.86
2023-04-18T13:27:53.087Z,99408.42
2023-04-18T13:30:04.979Z,99408.30
2023-04-18T13:32:18.321Z,99408.91
2023-04-18T13:34:26.481Z,99407.67
2023-04-18T13:36:30.011Z,99408.94
2023-04-18T13:38:34.749Z,99411.05
2023-04-18T13:40:40.712Z,99413.64
2023-04-18T13:42:53.320Z,99413.39
2023-04-18T13:45:05.877Z,99416.44
2023-04-18T13:47:15.950Z,99417.31
2023-04-18T13:49:27.686Z,99416.09
2023-04-18T13:51:52.933Z,99418.17
2023-04-18T13:53:57.062Z,99416.70
2023-04-18T13:56:01.867Z,99424.88
2023-04-18T13:58:11.817Z,99424.85
2023-04-18T14:00:17.275Z,99424.48
2023-04-18T14:02:20.721Z,99424.88
2023-04-18T14:04:32.901Z,99423.72
2023-04-18T14:06:53.358Z,99422.14
2023-04-18T14:09:02.332Z,99424.32
2023-04-18T14:11:07.389Z,99418.96
2023-04-18T14:13:12.849Z,99422.40
2023-04-18T14:15:19.951Z,99428.11
2023-04-18T14:17:22.982Z,99429.11
2023-04-18T14:19:27.013Z,99426.30
2023-04-18T14:21:39.277Z,99428.64
2023-04-18T14:24:00.566Z,99434.55
2023-04-18T14:26:05.912Z,99426.84
2023-04-18T14:28:11.883Z,99430.61
2023-04-18T14:30:20.946Z,99430.21
2023-04-18T14:32:27.241Z,99432.84
2023-04-18T14:34:38.226Z,99430.15
2023-04-18T14:36:55.408Z,99431.75
2023-04-18T14:39:03.627Z,99433.19
2023-04-18T14:41:07.401Z,99431.79
2023-04-18T14:43:10.680Z,99428.53
2023-04-18T14:45:16.517Z,99429.27
2023-04-18T14:47:19.945Z,99430.53
2023-04-18T14:49:23.401Z,99428.36
2023-04-18T14:51:26.519Z,99424.82
2023-04-18T14:53:31.117Z,99422.14
2023-04-18T14:55:34.730Z,99424.41
2023-04-18T14:58:00.105Z,99422.29
2023-04-18T15:00:11.005Z,99423.48
2023-04-18T15:02:25.037Z,99426.59
2023-04-18T15:04:29.048Z,99424.89
2023-04-18T15:06:34.847Z,99423.92
2023-04-18T15:08:37.862Z,99424.62
2023-04-18T15:10:56.921Z,99422.55
2023-04-18T15:13:00.221Z,99426.27
2023-04-18T15:15:07.376Z,99422.20
2023-04-18T15:17:22.049Z,99422.52
2023-04-18T15:19:35.363Z,99425.86
2023-04-18T15:21:40.826Z,99423.35
2023-04-18T15:23:45.452Z,99428.56
2023-04-18T15:25:50.388Z,99430.72
2023-04-18T15:27:54.893Z,99430.15
2023-04-18T15:30:02.886Z,99428.25
2023-04-18T15:32:28.865Z,99430.45
2023-04-18T15:34:32.734Z,99431.45
2023-04-18T15:36:38.151Z,99435.77
2023-04-18T15:38:45.460Z,99433.38
2023-04-18T15:40:51.991Z,99432.76
2023-04-18T15:43:00.759Z,99435.88
2023-04-18T15:45:24.634Z,99435.17
2023-04-18T15:47:42.972Z,99436.06
2023-04-18T15:49:50.464Z,99433.70
2023-04-18T15:51:54.949Z,99436.17
2023-04-18T15:54:07.996Z,99434.56
2023-04-18T15:56:17.912Z,99436.13
2023-04-18T15:58:32.903Z,99438.23
2023-04-18T16:00:42.832Z,99442.05
2023-04-18T16:02:50.878Z,99442.79
2023-04-18T16:04:56.169Z,99446.54
2023-04-18T16:07:49.138Z,99446.38
2023-04-18T16:09:55.285Z,99445.64
2023-04-18T16:11:58.445Z,99448.37
2023-04-18T16:14:13.936Z,99441.63
2023-04-18T16:16:17.884Z,99445.48
2023-04-18T16:18:23.316Z,99447.61
2023-04-18T16:20:30.221Z,99446.55
2023-04-18T16:22:41.443Z,99445.75
2023-04-18T16:25:04.364Z,99448.15
2023-04-18T16:27:36.078Z,99448.11
2023-04-18T16:29:41.309Z,99451.13
2023-04-18T16:31:48.116Z,99455.66
2023-04-18T16:34:16.987Z,99450.38
2023-04-18T16:36:24.006Z,99452.19
2023-04-18T16:38:33.844Z,99453.36
2023-04-18T16:40:41.330Z,99451.00
2023-04-18T16:42:58.265Z,99451.48
2023-04-18T16:45:26.033Z,99455.41
2023-04-18T16:47:29.910Z,99451.77
2023-04-18T16:49:36.935Z,99451.64
2023-04-18T16:51:42.374Z,99454.02
2023-04-18T16:53:47.104Z,99454.36
2023-04-18T16:55:56.463Z,99453.94
2023-04-18T16:57:59.524Z,99460.16
2023-04-18T17:02:36.188Z,99464.56
2023-04-18T17:05:06.566Z,99460.77
2023-04-18T17:07:11.410Z,99462.00
2023-04-18T17:09:18.180Z,99461.03
2023-04-18T17:11:28.473Z,99464.08
2023-04-18T17:13:32.353Z,99469.45
2023-04-18T17:15:37.109Z,99465.95
2023-04-18T17:17:46.952Z,99467.05
2023-04-18T17:20:01.575Z,99468.23
2023-04-18T17:22:07.992Z,99469.20
2023-04-18T17:24:16.068Z,99468.40
2023-04-18T17:26:28.855Z,99467.88
2023-04-18T17:28:36.331Z,99471.15
2023-04-18T17:30:42.648Z,99470.09
2023-04-18T17:33:00.873Z,99470.20
2023-04-18T17:35:35.189Z,99471.73
2023-04-18T17:37:42.160Z,99472.86
2023-04-18T17:39:59.103Z,99479.63
2023-04-18T17:42:05.538Z,99480.16
2023-04-18T17:44:11.176Z,99482.10
2023-04-18T17:46:26.553Z,99484.64
2023-04-18T17:48:35.062Z,99485.35
2023-04-18T17:50:54.929Z,99484.55
2023-04-18T17:52:58.562Z,99488.73
2023-04-18T17:55:07.426Z,99489.00
2023-04-18T17:57:14.533Z,99491.09
2023-04-18T17:59:18.539Z,99493.23
2023-04-18T18:01:48.810Z,99492.58
2023-04-18T18:03:58.365Z,99492.92
2023-04-18T18:06:08.422Z,99494.48
2023-04-18T18:08:19.287Z,99495.68
2023-04-18T18:10:25.657Z,99500.43
2023-04-18T18:12:32.590Z,99500.06
2023-04-18T18:14:40.414Z,99501.55
2023-04-18T18:16:50.541Z,99503.89
2023-04-18T18:19:10.207Z,99504.21
2023-04-18T18:21:30.067Z,99510.02
2023-04-18T18:23:35.991Z,99509.36
2023-04-18T18:25:41.565Z,99510.80
2023-04-18T18:27:53.327Z,99508.99
2023-04-18T18:29:57.038Z,99512.52
2023-04-18T18:32:04.007Z,99513.40
2023-04-18T18:34:17.638Z,99518.48
2023-04-18T18:36:54.371Z,99515.20
2023-04-18T18:38:59.192Z,99518.17
2023-04-18T18:41:05.286Z,99516.38
2023-04-18T18:43:08.139Z,99522.36
2023-04-18T18:45:15.553Z,99518.07
2023-04-18T18:47:19.411Z,99521.96
2023-04-18T18:49:47.886Z,99518.23
2023-04-18T18:51:54.609Z,99522.98
2023-04-18T18:53:57.411Z,99523.77
2023-04-18T18:56:01.184Z,99523.58
2023-04-18T18:58:07.829Z,99529.46
2023-04-18T19:00:23.620Z,99528.64
2023-04-18T19:02:34.551Z,99528.60
2023-04-18T19:04:41.618Z,99531.11
2023-04-18T19:06:57.226Z,99532.45
2023-04-18T19:09:11.895Z,99539.45
2023-04-18T19:11:16.225Z,99542.38
2023-04-18T19:13:25.397Z,99542.45
2023-04-18T19:15:31.368Z,99546.20
2023-04-18T19:17:36.837Z,99542.82
2023-04-18T19:19:49.729Z,99544.97
2023-04-18T19:21:54.955Z,99541.70
2023-04-18T19:24:03.990Z,99547.08
2023-04-18T19:26:18.042Z,99550.23
2023-04-18T19:28:27.755Z,99545.65
2023-04-18T19:30:33.219Z,99549.11
2023-04-18T19:32:39.322Z,99548.06
2023-04-18T19:34:44.610Z,99549.12
2023-04-18T19:37:05.215Z,99547.68
2023-04-18T19:39:12.103Z,99547.86
2023-04-18T19:41:15.516Z,99544.00
2023-04-18T19:43:34.294Z,99542.38
2023-04-18T19:45:41.274Z,99544.88
2023-04-18T19:47:50.181Z,99542.74
2023-04-18T19:50:00.443Z,99542.97
2023-04-18T19:52:06.490Z,99541.99
2023-04-18T19:54:20.292Z,99542.35
2023-04-18T19:56:25.702Z,99539.74
2023-04-18T19:58:45.884Z,99543.69
2023-04-18T20:01:05.514Z,99545.98
2023-04-18T20:03:13.454Z,99549.40
2023-04-18T20:05:18.651Z,99549.68
2023-04-18T20:07:26.014Z,99545.97
2023-04-18T20:09:31.047Z,99545.85
2023-04-18T20:11:35.971Z,99547.11
2023-04-18T20:13:41.561Z,99548.64
2023-04-18T20:15:54.370Z,99547.84
2023-04-18T20:17:57.560Z,99553.27
2023-04-18T20:20:06.571Z,99550.80
2023-04-18T20:22:17.412Z,99551.34
2023-04-18T20:24:46.461Z,99549.81
2023-04-18T20:26:52.339Z,99553.45
2023-04-18T20:28:59.265Z,99552.42
2023-04-18T20:31:08.416Z,99549.93
2023-04-18T20:33:12.760Z,99551.16
2023-04-18T20:35:25.306Z,99552.49
2023-04-18T20:37:37.331Z,99552.05
2023-04-18T20:40:13.251Z,99547.95
2023-04-18T20:42:17.761Z,99550.42
2023-04-18T20:44:22.490Z,99546.36
2023-04-18T20:46:28.392Z,99544.70
2023-04-18T20:48:35.458Z,99547.85
2023-04-18T20:50:41.173Z,99549.70
2023-04-18T20:52:46.673Z,99545.94
2023-04-18T20:54:50.852Z,99542.84
2023-04-18T20:57:02.337Z,99541.35
2023-04-18T20:59:06.621Z,99544.52
2023-04-18T21:01:38.486Z,99548.08
2023-04-18T21:03:43.738Z,99549.05
2023-04-18T21:05:55.568Z,99553.03
2023-04-18T21:08:02.814Z,99551.02
2023-04-18T21:10:14.468Z,99547.48
2023-04-18T21:12:18.850Z,99548.26
2023-04-18T21:14:28.212Z,99548.52
2023-04-18T21:16:42.536Z,99549.26
2023-04-18T21:18:49.431Z,99549.98
2023-04-18T21:20:57.292Z,99550.93
2023-04-18T21:23:11.968Z,99550.16
2023-04-18T21:25:22.354Z,99551.34
2023-04-18T21:27:50.324Z,99549.42
2023-04-18T21:30:19.681Z,99548.73
2023-04-18T21:32:24.774Z,99549.59
2023-04-18T21:34:42.848Z,99550.45
2023-04-18T21:36:46.410Z,99550.15
2023-04-18T21:38:57.730Z,99548.39
2023-04-18T21:43:26.483Z,99543.14
2023-04-18T21:45:39.915Z,99540.37
2023-04-18T21:47:47.105Z,99540.36
2023-04-18T21:49:50.754Z,99539.58
2023-04-18T21:52:03.774Z,99537.82
2023-04-18T21:54:09.286Z,99538.52
2023-04-18T21:56:14.277Z,99534.06
2023-04-18T21:58:41.499Z,99528.23
2023-04-18T22:00:44.537Z,99530.18
2023-04-18T22:02:50.638Z,99535.20
2023-04-18T22:04:57.618Z,99532.59
2023-04-18T22:07:02.652Z,99529.08
2023-04-18T22:11:39.842Z,99533.08
2023-04-18T22:13:45.794Z,99529.38
2023-04-18T22:18:23.735Z,99525.63
2023-04-18T22:20:32.291Z,99523.77
2023-04-18T22:22:44.516Z,99517.60
2023-04-18T22:24:48.638Z,99517.56
2023-04-18T22:26:53.760Z,99514.77
2023-04-18T22:29:46.981Z,99516.45
2023-04-18T22:31:34.367Z,99514.25
2023-04-18T22:33:38.812Z,99509.20
2023-04-18T22:35:43.475Z,99511.27
2023-04-18T22:37:48.364Z,99510.31
2023-04-18T22:39:55.034Z,99509.99
2023-04-18T22:42:01.185Z,99507.43
2023-04-18T22:44:06.690Z,99509.35
2023-04-18T22:46:12.754Z,99510.50
2023-04-18T22:48:19.126Z,99507.64
2023-04-18T22:50:24.699Z,99509.87
2023-04-18T22:52:28.026Z,99506.20
2023-04-18T22:54:56.506Z,99501.78
2023-04-18T22:57:06.556Z,99502.61
2023-04-18T22:59:14.445Z,99497.01
2023-04-18T23:01:19.628Z,99492.75
2023-04-18T23:03:39.896Z,99497.52
2023-04-18T23:05:43.743Z,99496.85
2023-04-18T23:07:46.652Z,99496.51
2023-04-18T23:09:50.187Z,99494.85
2023-04-18T23:11:53.956Z,99492.96
2023-04-18T23:13:57.381Z,99488.40
2023-04-18T23:16:04.823Z,99493.48
2023-04-18T23:18:12.765Z,99492.46
2023-04-18T23:20:19.980Z,99496.15
2023-04-18T23:22:53.057Z,99495.56
2023-04-18T23:25:02.950Z,99493.11
2023-04-18T23:27:08.084Z,99489.81
2023-04-18T23:29:20.757Z,99487.39
2023-04-18T23:32:10.897Z,99486.08
2023-04-18T23:34:15.012Z,99483.45
2023-04-18T23:36:29.157Z,99488.41
2023-04-18T23:38:41.253Z,99483.69
2023-04-18T23:40:45.424Z,99484.14
2023-04-18T23:42:48.929Z,99478.11
2023-04-18T23:45:08.206Z,99478.58
2023-04-18T23:47:12.884Z,99474.12
2023-04-18T23:49:24.161Z,99471.14
2023-04-18T23:51:27.863Z,99469.09
2023-04-18T23:53:34.242Z,99470.05
2023-04-18T23:55:38.617Z,99463.11
2023-04-18T23:57:42.698Z,99461.84
2023-04-18T23:59:57.935Z,99463.56
